Data Viewer
| City | State | Eastern Time | Source | Temp | DewPt | RH | BP | 5 Min Precip | Wind Speed | Wind Dir | 5 Min Wind Max | 5 Min Wind Max Dir |
|---|---|---|---|---|---|---|---|---|---|---|---|---|
| Sussex | NJ | 2026-05-06 06:53 | ASOS | 66 | 53 | 63 | 29.79 | 7 | SSW | |||
| Sussex | NJ | 2026-05-06 23:15 | ASOS | 54 | 43 | 67 | 29.84 | 0 | N | |||
| Sussex | NJ | 2026-05-06 21:53 | ASOS | 55 | 44 | 66 | 29.85 | |||||
| Sussex | NJ | 2026-05-06 22:20 | ASOS | 54 | 45 | 71 | 29.85 | 3 | WNW | |||
| Sussex | NJ | 2026-05-06 22:25 | ASOS | 54 | 45 | 71 | 29.84 | 0 | N | |||
| Sussex | NJ | 2026-05-06 22:30 | ASOS | 54 | 45 | 71 | 29.84 | 0 | N | |||
| Sussex | NJ | 2026-05-06 22:35 | ASOS | 54 | 45 | 71 | 29.84 | 0 | N | |||
| Sussex | NJ | 2026-05-06 22:40 | ASOS | 54 | 45 | 71 | 29.84 | 0 | N | |||
| Sussex | NJ | 2026-05-06 22:53 | ASOS | 54 | 43 | 66 | 29.83 | 6 | N | |||
| Sussex | NJ | 2026-05-06 23:20 | ASOS | 54 | 43 | 67 | 29.84 | 0 | N | |||
| Sussex | NJ | 2026-05-06 21:30 | ASOS | 55 | 44 | 67 | 29.83 | 6 | NNW | |||
| Sussex | NJ | 2026-05-06 23:25 | ASOS | 54 | 43 | 67 | 29.84 | 0 | N | |||
| Sussex | NJ | 2026-05-06 23:30 | ASOS | 54 | 43 | 67 | 29.84 | 0 | N | |||
| Sussex | NJ | 2026-05-06 23:35 | ASOS | 54 | 43 | 67 | 29.84 | 3 | NNW | |||
| Sussex | NJ | 2026-05-06 23:53 | ASOS | 53 | 43 | 69 | 29.84 | 3 | NW | |||
| Sussex | NJ | 2026-05-07 00:10 | ASOS | 54 | 43 | 67 | 29.84 | 3 | N | |||
| Sussex | NJ | 2026-05-07 00:15 | ASOS | 54 | 43 | 67 | 29.85 | 0 | N | |||
| Sussex | NJ | 2026-05-07 00:20 | ASOS | 54 | 43 | 67 | 29.85 | 0 | N | |||
| Sussex | NJ | 2026-05-06 21:35 | ASOS | 55 | 44 | 67 | 29.83 | 3 | N | |||
| Sussex | NJ | 2026-05-06 21:25 | ASOS | 55 | 44 | 67 | 29.83 | 3 | NNW | |||
| Sussex | NJ | 2026-05-07 00:30 | ASOS | 54 | 43 | 67 | 29.84 | 3 | NNE | |||
| Sussex | NJ | 2026-05-06 19:49 | ASOS | 61 | 54 | 77 | 29.76 | 6 | NNW | |||
| Sussex | NJ | 2026-05-06 18:35 | ASOS | 63 | 57 | 83 | 29.73 | 6 | SW | |||
| Sussex | NJ | 2026-05-06 18:53 | ASOS | 63 | 58 | 84 | 29.73 | 5 | ||||
| Sussex | NJ | 2026-05-06 19:15 | ASOS | 63 | 57 | 83 | 29.74 | 3 | SW | |||
| Sussex | NJ | 2026-05-06 19:20 | ASOS | 63 | 57 | 83 | 29.74 | 5 | SSW | |||
| Sussex | NJ | 2026-05-06 19:25 | ASOS | 63 | 57 | 83 | 29.74 | 5 | WSW | |||
| Sussex | NJ | 2026-05-06 19:30 | ASOS | 63 | 57 | 83 | 29.75 | 9 | NW | |||
| Sussex | NJ | 2026-05-06 19:35 | ASOS | 63 | 55 | 77 | 29.76 | 12 | NW | |||
| Sussex | NJ | 2026-05-06 19:53 | ASOS | 60 | 53 | 78 | 29.77 | 6 | NNW | |||
| Sussex | NJ | 2026-05-06 21:20 | ASOS | 55 | 44 | 67 | 29.83 | 0 | N | |||
| Sussex | NJ | 2026-05-06 20:15 | ASOS | 59 | 50 | 72 | 29.78 | 0 | N | |||
| Sussex | NJ | 2026-05-06 20:20 | ASOS | 57 | 50 | 77 | 29.79 | 6 | NW | |||
| Sussex | NJ | 2026-05-06 20:25 | ASOS | 57 | 50 | 77 | 29.79 | 5 | NNE | |||
| Sussex | NJ | 2026-05-06 20:30 | ASOS | 57 | 50 | 77 | 29.80 | 6 | WNW | |||
| Sussex | NJ | 2026-05-06 20:35 | ASOS | 57 | 48 | 72 | 29.80 | 5 | NW | |||
| Sussex | NJ | 2026-05-06 20:53 | ASOS | 56 | 47 | 72 | 29.81 | 5 | WNW | |||
| Sussex | NJ | 2026-05-06 21:15 | ASOS | 55 | 44 | 67 | 29.82 | 3 | N | |||
| Sussex | NJ | 2026-05-07 00:25 | ASOS | 54 | 43 | 67 | 29.85 | 3 | NE | |||
| Sussex | NJ | 2026-05-07 00:35 | ASOS | 52 | 43 | 71 | 29.84 | 0 | N | |||
| Sussex | NJ | 2026-05-06 18:25 | ASOS | 63 | 57 | 83 | 29.73 | 6 | SSW | |||
| Sussex | NJ | 2026-05-07 05:20 | ASOS | 48 | 39 | 71 | 29.84 | 0 | N | |||
| Sussex | NJ | 2026-05-07 04:05 | ASOS | 48 | 41 | 76 | 29.85 | 7 | N | |||
| Sussex | NJ | 2026-05-07 04:10 | ASOS | 48 | 41 | 76 | 29.85 | 6 | N | |||
| Sussex | NJ | 2026-05-07 04:15 | ASOS | 48 | 41 | 76 | 29.84 | 9 | NNW | |||
| Sussex | NJ | 2026-05-07 04:20 | ASOS | 48 | 41 | 76 | 29.84 | 7 | NNW | |||
| Sussex | NJ | 2026-05-07 04:25 | ASOS | 48 | 41 | 76 | 29.83 | 10 | N | |||
| Sussex | NJ | 2026-05-07 04:30 | ASOS | 48 | 39 | 71 | 29.84 | 7 | NNW | |||
| Sussex | NJ | 2026-05-07 04:53 | ASOS | 49 | 40 | 71 | 29.84 | 3 | ||||
| Sussex | NJ | 2026-05-07 05:25 | ASOS | 48 | 39 | 71 | 29.84 | 5 | NNW | |||
| Sussex | NJ | 2026-05-07 03:53 | ASOS | 49 | 42 | 77 | 29.85 | 3 | ||||
| Sussex | NJ | 2026-05-07 05:30 | ASOS | 48 | 39 | 71 | 29.84 | 3 | NW | |||
| Sussex | NJ | 2026-05-07 05:35 | ASOS | 48 | 39 | 71 | 29.84 | 3 | WNW | |||
| Sussex | NJ | 2026-05-07 05:53 | ASOS | 49 | 39 | 69 | 29.85 | 0 | N | |||
| Sussex | NJ | 2026-05-07 06:15 | ASOS | 48 | 39 | 71 | 29.85 | 3 | N | |||
| Sussex | NJ | 2026-05-07 06:20 | ASOS | 50 | 39 | 66 | 29.85 | 5 | NW | |||
| Sussex | NJ | 2026-05-07 06:25 | ASOS | 48 | 39 | 71 | 29.86 | 6 | NNW | |||
| Sussex | NJ | 2026-05-07 06:30 | ASOS | 50 | 39 | 66 | 29.86 | 6 | N | |||
| Sussex | NJ | 2026-05-07 04:00 | ASOS | 48 | 43 | 81 | 29.85 | 6 | NNW | |||
| Sussex | NJ | 2026-05-07 03:35 | ASOS | 48 | 43 | 81 | 29.85 | 3 | NNW | |||
| Sussex | NJ | 2026-05-07 00:53 | ASOS | 52 | 42 | 69 | 29.84 | 3 | N | |||
| Sussex | NJ | 2026-05-07 02:10 | ASOS | 50 | 43 | 76 | 29.85 | 0 | N | |||
| Sussex | NJ | 2026-05-07 01:20 | ASOS | 52 | 41 | 66 | 29.83 | 5 | N | |||
| Sussex | NJ | 2026-05-07 01:25 | ASOS | 52 | 41 | 66 | 29.83 | 3 | NNW | |||
| Sussex | NJ | 2026-05-07 01:30 | ASOS | 52 | 41 | 66 | 29.84 | 0 | N | |||
| Sussex | NJ | 2026-05-07 01:35 | ASOS | 52 | 41 | 66 | 29.85 | 0 | N | |||
| Sussex | NJ | 2026-05-07 01:53 | ASOS | 50 | 43 | 77 | 29.85 | 0 | N | |||
| Sussex | NJ | 2026-05-07 02:00 | ASOS | 50 | 43 | 76 | 29.85 | 0 | N | |||
| Sussex | NJ | 2026-05-07 02:05 | ASOS | 48 | 43 | 81 | 29.85 | 0 | N | |||
| Sussex | NJ | 2026-05-07 02:15 | ASOS | 48 | 43 | 81 | 29.85 | 0 | N | |||
| Sussex | NJ | 2026-05-07 03:30 | ASOS | 48 | 43 | 81 | 29.85 | 3 | N | |||
| Sussex | NJ | 2026-05-07 02:20 | ASOS | 50 | 43 | 76 | 29.85 | 0 | N | |||
| Sussex | NJ | 2026-05-07 02:25 | ASOS | 50 | 43 | 76 | 29.86 | 0 | N | |||
| Sussex | NJ | 2026-05-07 02:30 | ASOS | 48 | 43 | 81 | 29.85 | 0 | N | |||
| Sussex | NJ | 2026-05-07 02:35 | ASOS | 48 | 43 | 81 | 29.85 | 0 | N | |||
| Sussex | NJ | 2026-05-07 02:53 | ASOS | 49 | 43 | 80 | 29.85 | 0 | N | |||
| Sussex | NJ | 2026-05-07 03:15 | ASOS | 48 | 43 | 81 | 29.86 | 0 | N | |||
| Sussex | NJ | 2026-05-07 03:20 | ASOS | 48 | 45 | 87 | 29.85 | 0 | N | |||
| Sussex | NJ | 2026-05-07 03:25 | ASOS | 48 | 43 | 81 | 29.85 | 3 | N | |||
| Sussex | NJ | 2026-05-06 18:30 | ASOS | 63 | 57 | 83 | 29.73 | 6 | SSW | |||
| Sussex | NJ | 2026-05-06 18:20 | ASOS | 63 | 57 | 83 | 29.73 | 6 | SSW | |||
| Sussex | NJ | 2026-05-06 07:15 | ASOS | 66 | 54 | 64 | 29.79 | 7 | SSW | |||
| Sussex | NJ | 2026-05-06 11:25 | ASOS | 64 | 57 | 77 | 29.77 | 5 | SSW | |||
| Sussex | NJ | 2026-05-06 10:20 | ASOS | 66 | 54 | 64 | 29.79 | 8 | SSW | |||
| Sussex | NJ | 2026-05-06 10:25 | ASOS | 66 | 54 | 64 | 29.79 | 7 | SW | |||
| Sussex | NJ | 2026-05-06 10:30 | ASOS | 66 | 54 | 64 | 29.79 | 5 | SW | |||
| Sussex | NJ | 2026-05-06 10:35 | ASOS | 66 | 54 | 64 | 29.79 | 8 | SW | |||
| Sussex | NJ | 2026-05-06 10:53 | ASOS | 65 | 56 | 73 | 29.79 | 3 | SSW | |||
| Sussex | NJ | 2026-05-06 11:06 | ASOS | 65 | 56 | 73 | 29.78 | 3 | SSW | |||
| Sussex | NJ | 2026-05-06 11:20 | ASOS | 64 | 57 | 77 | 29.77 | 5 | S | |||
| Sussex | NJ | 2026-05-06 11:30 | ASOS | 64 | 57 | 77 | 29.78 | 5 | SSW | |||
| Sussex | NJ | 2026-05-06 09:53 | ASOS | 67 | 53 | 61 | 29.79 | 7 | SSW | |||
| Sussex | NJ | 2026-05-06 11:35 | ASOS | 64 | 57 | 77 | 29.78 | 5 | SSW | |||
| Sussex | NJ | 2026-05-06 12:15 | ASOS | 64 | 57 | 77 | 29.76 | 9 | S | |||
| Sussex | NJ | 2026-05-06 12:25 | ASOS | 64 | 57 | 77 | 29.75 | 7 | SSW | |||
| Sussex | NJ | 2026-05-06 12:30 | ASOS | 63 | 57 | 83 | 29.76 | 9 | SSW | |||
| Sussex | NJ | 2026-05-06 12:35 | ASOS | 63 | 57 | 83 | 29.76 | |||||
| Sussex | NJ | 2026-05-06 12:40 | ASOS | 63 | 57 | 81 | 29.75 | 7 | S | |||
| Sussex | NJ | 2026-05-06 12:53 | ASOS | 63 | 57 | 81 | 29.75 | |||||
| Sussex | NJ | 2026-05-06 10:15 | ASOS | 66 | 54 | 64 | 29.79 | |||||
| Sussex | NJ | 2026-05-06 09:36 | ASOS | 67 | 53 | 61 | 29.79 | 8 | SW | |||
| Sussex | NJ | 2026-05-06 13:25 | ASOS | 63 | 57 | 83 | 29.75 | 5 | SW | |||
| Sussex | NJ | 2026-05-06 08:20 | ASOS | 66 | 54 | 64 | 29.79 | 9 | SSW | |||
| Sussex | NJ | 2026-05-06 07:20 | ASOS | 66 | 54 | 64 | 29.79 | 7 | SSW | |||
| Sussex | NJ | 2026-05-06 07:25 | ASOS | 66 | 54 | 64 | 29.80 | 8 | SSW | |||
| Sussex | NJ | 2026-05-06 07:30 | ASOS | 66 | 54 | 64 | 29.80 | 3 | SSW | |||
| Sussex | NJ | 2026-05-06 07:35 | ASOS | 66 | 54 | 64 | 29.79 | 9 | SSW | |||
| Sussex | NJ | 2026-05-06 07:40 | ASOS | 66 | 54 | 64 | 29.79 | 7 | SSW | |||
| Sussex | NJ | 2026-05-06 07:53 | ASOS | 66 | 53 | 63 | 29.79 | 6 | SSW | |||
| Sussex | NJ | 2026-05-06 08:15 | ASOS | 66 | 54 | 64 | 29.79 | 8 | S | |||
| Sussex | NJ | 2026-05-06 08:25 | ASOS | 66 | 54 | 64 | 29.78 | 10 | SSW | |||
| Sussex | NJ | 2026-05-06 09:35 | ASOS | 66 | 54 | 64 | 29.79 | 9 | SW | |||
| Sussex | NJ | 2026-05-06 08:30 | ASOS | 66 | 54 | 64 | 29.78 | 7 | SSW | |||
| Sussex | NJ | 2026-05-06 08:35 | ASOS | 66 | 54 | 64 | 29.78 | 8 | SSW | |||
| Sussex | NJ | 2026-05-06 08:53 | ASOS | 67 | 53 | 61 | 29.79 | 12 | SSW | |||
| Sussex | NJ | 2026-05-06 09:15 | ASOS | 66 | 54 | 64 | 29.79 | 7 | SW | |||
| Sussex | NJ | 2026-05-06 09:20 | ASOS | 66 | 54 | 64 | 29.79 | |||||
| Sussex | NJ | 2026-05-06 09:25 | ASOS | 66 | 54 | 64 | 29.80 | 13 | SW | |||
| Sussex | NJ | 2026-05-06 09:30 | ASOS | 66 | 54 | 64 | 29.79 | 10 | SSW | |||
| Sussex | NJ | 2026-05-06 13:20 | ASOS | 63 | 57 | 83 | 29.75 | 7 | SSW | |||
| Sussex | NJ | 2026-05-06 13:30 | ASOS | 63 | 57 | 83 | 29.75 | 7 | SSW | |||
| Sussex | NJ | 2026-05-06 18:16 | ASOS | 63 | 57 | 81 | 29.73 | 5 | ||||
| Sussex | NJ | 2026-05-06 16:30 | ASOS | 63 | 57 | 83 | 29.71 | 7 | SW | |||
| Sussex | NJ | 2026-05-06 15:44 | ASOS | 63 | 58 | 84 | 29.72 | 5 | ||||
| Sussex | NJ | 2026-05-06 15:53 | ASOS | 63 | 58 | 84 | 29.72 | 7 | SSW | |||
| Sussex | NJ | 2026-05-06 16:00 | ASOS | 63 | 58 | 84 | 29.71 | 8 | SW | |||
| Sussex | NJ | 2026-05-06 16:10 | ASOS | 63 | 57 | 83 | 29.71 | 9 | SSW | |||
| Sussex | NJ | 2026-05-06 16:15 | ASOS | 63 | 57 | 83 | 29.71 | 6 | WSW | |||
| Sussex | NJ | 2026-05-06 16:20 | ASOS | 63 | 57 | 83 | 29.71 | 6 | SSW | |||
| Sussex | NJ | 2026-05-06 16:25 | ASOS | 63 | 57 | 83 | 29.71 | 7 | SW | |||
| Sussex | NJ | 2026-05-06 16:53 | ASOS | 62 | 57 | 84 | 29.72 | 6 | ||||
| Sussex | NJ | 2026-05-06 15:34 | ASOS | 63 | 58 | 84 | 29.73 | 7 | SSW | |||
| Sussex | NJ | 2026-05-06 17:20 | ASOS | 63 | 57 | 83 | 29.72 | 6 | SW | |||
| Sussex | NJ | 2026-05-06 17:25 | ASOS | 63 | 57 | 83 | 29.73 | 6 | SW | |||
| Sussex | NJ | 2026-05-06 17:30 | ASOS | 63 | 57 | 83 | 29.73 | 5 | SW | |||
| Sussex | NJ | 2026-05-06 17:35 | ASOS | 63 | 57 | 83 | 29.73 | 5 | SSW | |||
| Sussex | NJ | 2026-05-06 17:38 | ASOS | 62 | 57 | 84 | 29.72 | 6 | SSW | |||
| Sussex | NJ | 2026-05-06 17:53 | ASOS | 62 | 58 | 86 | 29.73 | 5 | ||||
| Sussex | NJ | 2026-05-06 18:15 | ASOS | 63 | 57 | 83 | 29.73 | 6 | SSW | |||
| Sussex | NJ | 2026-05-06 15:35 | ASOS | 63 | 57 | 83 | 29.73 | 6 | SSW | |||
| Sussex | NJ | 2026-05-06 15:30 | ASOS | 63 | 57 | 83 | 29.73 | 5 | SSW | |||
| Sussex | NJ | 2026-05-06 13:35 | ASOS | 63 | 57 | 83 | 29.75 | 6 | SSW | |||
| Sussex | NJ | 2026-05-06 14:25 | ASOS | 63 | 57 | 83 | 29.75 | 6 | SSW | |||
| Sussex | NJ | 2026-05-06 13:37 | ASOS | 62 | 57 | 84 | 29.75 | 5 | ||||
| Sussex | NJ | 2026-05-06 13:40 | ASOS | 63 | 57 | 83 | 29.76 | 6 | SSW | |||
| Sussex | NJ | 2026-05-06 13:42 | ASOS | 62 | 57 | 84 | 29.76 | 6 | ||||
| Sussex | NJ | 2026-05-06 13:53 | ASOS | 62 | 57 | 84 | 29.75 | 6 | SW | |||
| Sussex | NJ | 2026-05-06 14:15 | ASOS | 63 | 57 | 83 | 29.75 | 5 | SSW | |||
| Sussex | NJ | 2026-05-06 14:20 | ASOS | 63 | 57 | 83 | 29.75 | 5 | SSW | |||
| Sussex | NJ | 2026-05-06 14:21 | ASOS | 62 | 57 | 84 | 29.75 | 6 | ||||
| Sussex | NJ | 2026-05-06 14:30 | ASOS | 63 | 57 | 83 | 29.75 | 7 | SSW | |||
| Sussex | NJ | 2026-05-06 15:25 | ASOS | 63 | 57 | 83 | 29.73 | 5 | SSW | |||
| Sussex | NJ | 2026-05-06 14:35 | ASOS | 63 | 57 | 83 | 29.75 | 6 | SSW | |||
| Sussex | NJ | 2026-05-06 14:47 | ASOS | 63 | 57 | 83 | 29.74 | 3 | ||||
| Sussex | NJ | 2026-05-06 14:48 | ASOS | 63 | 58 | 84 | 29.74 | 6 | SSW | |||
| Sussex | NJ | 2026-05-06 15:00 | ASOS | 63 | 57 | 83 | 29.74 | |||||
| Sussex | NJ | 2026-05-06 15:05 | ASOS | 63 | 57 | 83 | 29.74 | 3 | SSW | |||
| Sussex | NJ | 2026-05-06 15:10 | ASOS | 63 | 57 | 83 | 29.74 | 5 | SSW | |||
| Sussex | NJ | 2026-05-06 15:15 | ASOS | 63 | 57 | 83 | 29.74 | 5 | SSW | |||
| Sussex | NJ | 2026-05-06 15:20 | ASOS | 63 | 57 | 83 | 29.73 | 5 | SSW | |||
| Sussex | NJ | 2026-05-07 06:35 | ASOS | 50 | 39 | 66 | 29.86 | 7 | NNW |
data collection created in 0.02508282661438 (queried in 0.006523) rendered in: 0.00023102760314941

